Wittenbergen — V2DA — position and weather

sailwx.info

Track history (hours):
 
Tides and Currents Weather Stations Pressure Air Temp Water Temp Dewpoint Dewpoint Depression Visibility Wind Speed Wind Dir Waves Ship Positions

Wittenbergen

Last reported at 2018-Feb-10 21:40 UTC. Time now 2018-Feb-19 06:24 UTC.
Position N 43°43' W 005°59'.
Warning: this ship's position is 8 days out of date.

Length 88 m; draft 3.5 m.

Type: Cargo ship. MMSI: 304341000.

Date/timePositionNaut miles runAvg speedWind from/ knotsBaromVisibWave heightAir tempDewpointWater temp
2018-Feb-10 21:40N 43°43' W 005°59'1 6.6
2018-Feb-10 21:30N 43°43' W 005°57'3 6.6
2018-Feb-10 20:59N 43°43' W 005°53'3 6.2
2018-Feb-10 20:29N 43°42' W 005°49'3 6.3
2018-Feb-10 19:59N 43°41' W 005°44'3 6.6
2018-Feb-10 19:29N 43°41' W 005°40'6 6.3
2018-Feb-10 18:37N 43°41' W 005°32'1 6.3
2018-Feb-10 18:29N 43°41' W 005°31'3 6.3
2018-Feb-10 17:56N 43°41' W 005°26'3 6.4
2018-Feb-10 17:30N 43°41' W 005°22'4 6.3
2018-Feb-10 16:51N 43°41' W 005°17'3 6.0
2018-Feb-10 16:26N 43°40' W 005°13'6 6.1
2018-Feb-10 15:31N 43°40' W 005°06'1 6.1
2018-Feb-10 15:19N 43°40' W 005°04'51 5.8
2018-Feb-10 06:31N 43°35' W 003°53'0 5.6
2018-Feb-10 06:26N 43°35' W 003°53'3 5.3
2018-Feb-10 05:57N 43°35' W 003°49'2 5.2
2018-Feb-10 05:30N 43°35' W 003°46'3 5.4
2018-Feb-10 05:01N 43°34' W 003°42'2 4.8
2018-Feb-10 04:31N 43°34' W 003°39'2 4.6
2018-Feb-10 04:00N 43°34' W 003°36'2 4.7
2018-Feb-10 03:30N 43°34' W 003°33'2 4.6
2018-Feb-10 03:00N 43°33' W 003°29'2 4.5
2018-Feb-10 02:31N 43°33' W 003°26'2 4.5
2018-Feb-10 02:00N 43°32' W 003°23'2 4.8
2018-Feb-10 01:30N 43°32' W 003°20'2 4.6
2018-Feb-10 01:00N 43°31' W 003°18'2 4.3
2018-Feb-10 00:31N 43°29' W 003°15'2 4.2
2018-Feb-10 00:00N 43°28' W 003°13'2 4.1
2018-Feb-09 23:31N 43°27' W 003°11'2 4.5
2018-Feb-09 23:00N 43°25' W 003°08'1 5.5
2018-Feb-09 22:46N 43°25' W 003°07'1 5.4
2018-Feb-09 22:31N 43°24' W 003°06'6 5.8
2018-Feb-09 21:31N 43°19' W 003°00'0 0.9
2018-Feb-09 21:01N 43°19' W 002°60'0 0.0
2018-Feb-08 01:26N 43°19' W 002°60'0 0.0
2018-Feb-08 00:59N 43°19' W 002°60'0 0.0
2018-Feb-08 00:29N 43°19' W 002°60'0 0.0
2018-Feb-07 23:56N 43°19' W 002°60'0 0.0
2018-Feb-07 23:29N 43°19' W 002°60'0 0.0
2018-Feb-07 22:59N 43°19' W 002°60'0 0.0
2018-Feb-07 22:29N 43°19' W 002°60'0 0.0
2018-Feb-07 21:56N 43°19' W 002°60'0 0.0
2018-Feb-07 21:29N 43°19' W 002°60'0 0.0
2018-Feb-07 09:29N 43°19' W 002°60'0 0.0
2018-Feb-07 08:59N 43°19' W 002°60'0 0.0
2018-Feb-07 08:26N 43°19' W 002°60'0 0.0
2018-Feb-07 07:59N 43°19' W 002°60'0 0.0
2018-Feb-07 07:29N 43°19' W 002°60'0 0.0
2018-Feb-07 06:59N 43°19' W 002°60'0 0.0
2018-Feb-07 06:26N 43°19' W 002°60'0 0.0
2018-Feb-07 05:59N 43°19' W 002°60'0 0.0
2018-Feb-07 05:29N 43°19' W 002°60'0 0.0
2018-Feb-07 04:59N 43°19' W 002°60'0 0.0
2018-Feb-07 04:26N 43°19' W 002°60'0 0.0
2018-Feb-07 03:59N 43°19' W 002°60'0 0.0
2018-Feb-07 03:20N 43°19' W 002°60'0 0.0
2018-Feb-07 02:44N 43°19' W 002°60'0 0.0
2018-Feb-07 02:23N 43°19' W 002°60'0 0.0
2018-Feb-07 01:59N 43°19' W 002°60'0 0.0
2018-Feb-07 01:29N 43°19' W 002°60'0 0.0
2018-Feb-07 00:50N 43°19' W 002°60'0 0.0
2018-Feb-07 00:26N 43°19' W 002°60'0 0.0
2018-Feb-06 23:59N 43°19' W 002°60'0 0.0
2018-Feb-06 23:29N 43°19' W 002°60'0 0.0
2018-Feb-06 22:59N 43°19' W 002°60'0 0.0
2018-Feb-06 22:29N 43°19' W 002°60'0 0.0
2018-Feb-06 21:59N 43°19' W 002°60'0 0.0
2018-Feb-06 21:29N 43°19' W 002°60'0 0.0
2018-Feb-06 20:59N 43°19' W 002°60'0 0.0
2018-Feb-06 20:29N 43°19' W 002°60'0 0.0
2018-Feb-06 19:59N 43°19' W 002°60'0 0.0
2018-Feb-06 19:29N 43°19' W 002°60'0 0.0
2018-Feb-06 18:56N 43°19' W 002°60'0 0.0
2018-Feb-06 18:29N 43°19' W 002°60'0 0.0
2018-Feb-06 17:56N 43°19' W 002°60'0 0.0
2018-Feb-06 17:29N 43°19' W 002°60'0 0.0
2018-Feb-06 16:59N 43°19' W 002°60'0 0.0
2018-Feb-06 16:29N 43°19' W 002°60'0 0.0
2018-Feb-06 15:56N 43°19' W 002°60'0 0.0
2018-Feb-06 15:29N 43°19' W 002°60'0 0.0
2018-Feb-06 14:56N 43°19' W 002°60'0 0.0
2018-Feb-06 14:29N 43°19' W 002°60'0 0.0
2018-Feb-06 13:59N 43°19' W 002°60'0 0.0
2018-Feb-06 13:29N 43°19' W 002°60'0 0.0
2018-Feb-06 12:59N 43°19' W 002°60'0 0.0
2018-Feb-06 12:30N 43°19' W 002°60'0 0.0
2018-Feb-06 12:00N 43°19' W 002°60'0 0.0
2018-Feb-06 11:30N 43°19' W 002°60'0 0.0
2018-Feb-06 11:00N 43°19' W 002°60'0 0.0
2018-Feb-06 10:30N 43°19' W 002°60'0 0.0
2018-Feb-06 09:59N 43°19' W 002°60'0 0.0
2018-Feb-06 09:30N 43°19' W 002°60'0 0.0
2018-Feb-06 09:00N 43°19' W 002°60'0 0.0
2018-Feb-06 08:30N 43°19' W 002°60'0 0.0
2018-Feb-06 08:00N 43°19' W 002°60'0 0.1
2018-Feb-06 07:30N 43°19' W 002°60'2 3.3
2018-Feb-06 07:00N 43°20' W 003°02'6 5.5
2018-Feb-06 06:00N 43°24' W 003°06'2 3.6
2018-Feb-06 05:30N 43°26' W 003°07'2 4.3
2018-Feb-06 05:00N 43°28' W 003°08'2 3.4
2018-Feb-06 04:30N 43°30' W 003°08'3 3.9
2018-Feb-06 03:52N 43°32' W 003°08'5 5.6
2018-Feb-06 03:00N 43°37' W 003°07'279 5.7
2018-Feb-04 01:58N 47°60' W 005°25'6 6.3
2018-Feb-04 00:58N 48°04' W 005°32'7 6.1
2018-Feb-03 23:53N 48°08' W 005°40'126 5.7
2018-Feb-03 01:44N 50°01' W 004°18'8 9.6
2018-Feb-03 00:53N 50°03' W 004°06'4 9.6
2018-Feb-03 00:30N 50°04' W 003°60'5 9.4
2018-Feb-02 23:57N 50°06' W 003°52'4 9.0
2018-Feb-02 23:30N 50°06' W 003°46'4 8.5
2018-Feb-02 23:00N 50°08' W 003°40'4 7.8
2018-Feb-02 22:31N 50°09' W 003°34'4 7.1
2018-Feb-02 22:00N 50°10' W 003°29'3 6.9
2018-Feb-02 21:30N 50°12' W 003°24'3 6.6
2018-Feb-02 21:00N 50°13' W 003°19'3 6.5
2018-Feb-02 20:31N 50°14' W 003°14'3 6.6
2018-Feb-02 20:00N 50°15' W 003°09'7 6.9
2018-Feb-02 19:00N 50°18' W 002°59'4 7.4
2018-Feb-02 18:30N 50°19' W 002°54'4 7.9
2018-Feb-02 18:00N 50°21' W 002°48'4 8.7
2018-Feb-02 17:30N 50°22' W 002°42'5 9.7
2018-Feb-02 17:00N 50°24' W 002°35'5110.9
2018-Feb-02 12:22N 50°29' W 001°16'29 5.5
2018-Feb-02 07:09N 50°31' W 000°31'1 7.2
2018-Feb-02 07:00N 50°31' W 000°29'4 7.9
2018-Feb-02 06:26N 50°31' W 000°22'4 8.6
2018-Feb-02 06:00N 50°31' W 000°16'5 9.1
2018-Feb-02 05:30N 50°31' W 000°09'5 9.3
2018-Feb-02 05:00N 50°32' W 000°02'5 9.5
2018-Feb-02 04:30N 50°33' E 000°05'5 9.6
2018-Feb-02 04:00N 50°35' E 000°13'33 8.1
2018-Feb-01 23:57N 50°50' E 000°59'10 7.3
2018-Feb-01 22:38N 50°56' E 001°11'5 8.4
2018-Feb-01 22:00N 50°59' E 001°17'510.6
2018-Feb-01 21:30N 51°03' E 001°23'2210.9
2018-Feb-01 19:30N 51°24' E 001°32'510.2
2018-Feb-01 19:00N 51°27' E 001°26'510.2
2018-Feb-01 18:30N 51°29' E 001°19'510.3
2018-Feb-01 18:00N 51°29' E 001°10'5 9.7
2018-Feb-01 17:30N 51°30' E 001°02'510.4
2018-Feb-01 17:00N 51°29' E 000°54'510.1
2018-Feb-01 16:30N 51°29' E 000°46'612.1
2018-Feb-01 16:00N 51°30' E 000°36'511.0
2018-Feb-01 15:30N 51°29' E 000°28'5 9.0
2018-Feb-01 15:00N 51°27' E 000°21'  
Track history (hours):
 
Tides and Currents Weather Stations Pressure Air Temp Water Temp Dewpoint Dewpoint Depression Visibility Wind Speed Wind Dir Waves Ship Positions

Wittenbergen

Last reported at 2018-Feb-10 21:40 UTC. Time now 2018-Feb-19 06:24 UTC.
Position N 43°43' W 005°59'.
Warning: this ship's position is 8 days out of date.

Length 88 m; draft 3.5 m.

Type: Cargo ship. MMSI: 304341000.

Date/timePositionNaut miles runAvg speedWind from/ knotsBaromVisibWave heightAir tempDewpointWater temp
2018-Feb-10 21:40N 43°43' W 005°59'1 6.6
2018-Feb-10 21:30N 43°43' W 005°57'3 6.6
2018-Feb-10 20:59N 43°43' W 005°53'3 6.2
2018-Feb-10 20:29N 43°42' W 005°49'3 6.3
2018-Feb-10 19:59N 43°41' W 005°44'3 6.6
2018-Feb-10 19:29N 43°41' W 005°40'6 6.3
2018-Feb-10 18:37N 43°41' W 005°32'1 6.3
2018-Feb-10 18:29N 43°41' W 005°31'3 6.3
2018-Feb-10 17:56N 43°41' W 005°26'3 6.4
2018-Feb-10 17:30N 43°41' W 005°22'4 6.3
2018-Feb-10 16:51N 43°41' W 005°17'3 6.0
2018-Feb-10 16:26N 43°40' W 005°13'6 6.1
2018-Feb-10 15:31N 43°40' W 005°06'1 6.1
2018-Feb-10 15:19N 43°40' W 005°04'51 5.8
2018-Feb-10 06:31N 43°35' W 003°53'0 5.6
2018-Feb-10 06:26N 43°35' W 003°53'3 5.3
2018-Feb-10 05:57N 43°35' W 003°49'2 5.2
2018-Feb-10 05:30N 43°35' W 003°46'3 5.4
2018-Feb-10 05:01N 43°34' W 003°42'2 4.8
2018-Feb-10 04:31N 43°34' W 003°39'2 4.6
2018-Feb-10 04:00N 43°34' W 003°36'2 4.7
2018-Feb-10 03:30N 43°34' W 003°33'2 4.6
2018-Feb-10 03:00N 43°33' W 003°29'2 4.5
2018-Feb-10 02:31N 43°33' W 003°26'2 4.5
2018-Feb-10 02:00N 43°32' W 003°23'2 4.8
2018-Feb-10 01:30N 43°32' W 003°20'2 4.6
2018-Feb-10 01:00N 43°31' W 003°18'2 4.3
2018-Feb-10 00:31N 43°29' W 003°15'2 4.2
2018-Feb-10 00:00N 43°28' W 003°13'2 4.1
2018-Feb-09 23:31N 43°27' W 003°11'2 4.5
2018-Feb-09 23:00N 43°25' W 003°08'1 5.5
2018-Feb-09 22:46N 43°25' W 003°07'1 5.4
2018-Feb-09 22:31N 43°24' W 003°06'6 5.8
2018-Feb-09 21:31N 43°19' W 003°00'0 0.9
2018-Feb-09 21:01N 43°19' W 002°60'0 0.0
2018-Feb-08 01:26N 43°19' W 002°60'0 0.0
2018-Feb-08 00:59N 43°19' W 002°60'0 0.0
2018-Feb-08 00:29N 43°19' W 002°60'0 0.0
2018-Feb-07 23:56N 43°19' W 002°60'0 0.0
2018-Feb-07 23:29N 43°19' W 002°60'0 0.0
2018-Feb-07 22:59N 43°19' W 002°60'0 0.0
2018-Feb-07 22:29N 43°19' W 002°60'0 0.0
2018-Feb-07 21:56N 43°19' W 002°60'0 0.0
2018-Feb-07 21:29N 43°19' W 002°60'0 0.0
2018-Feb-07 09:29N 43°19' W 002°60'0 0.0
2018-Feb-07 08:59N 43°19' W 002°60'0 0.0
2018-Feb-07 08:26N 43°19' W 002°60'0 0.0
2018-Feb-07 07:59N 43°19' W 002°60'0 0.0
2018-Feb-07 07:29N 43°19' W 002°60'0 0.0
2018-Feb-07 06:59N 43°19' W 002°60'0 0.0
2018-Feb-07 06:26N 43°19' W 002°60'0 0.0
2018-Feb-07 05:59N 43°19' W 002°60'0 0.0
2018-Feb-07 05:29N 43°19' W 002°60'0 0.0
2018-Feb-07 04:59N 43°19' W 002°60'0 0.0
2018-Feb-07 04:26N 43°19' W 002°60'0 0.0
2018-Feb-07 03:59N 43°19' W 002°60'0 0.0
2018-Feb-07 03:20N 43°19' W 002°60'0 0.0
2018-Feb-07 02:44N 43°19' W 002°60'0 0.0
2018-Feb-07 02:23N 43°19' W 002°60'0 0.0
2018-Feb-07 01:59N 43°19' W 002°60'0 0.0
2018-Feb-07 01:29N 43°19' W 002°60'0 0.0
2018-Feb-07 00:50N 43°19' W 002°60'0 0.0
2018-Feb-07 00:26N 43°19' W 002°60'0 0.0
2018-Feb-06 23:59N 43°19' W 002°60'0 0.0
2018-Feb-06 23:29N 43°19' W 002°60'0 0.0
2018-Feb-06 22:59N 43°19' W 002°60'0 0.0
2018-Feb-06 22:29N 43°19' W 002°60'0 0.0
2018-Feb-06 21:59N 43°19' W 002°60'0 0.0
2018-Feb-06 21:29N 43°19' W 002°60'0 0.0
2018-Feb-06 20:59N 43°19' W 002°60'0 0.0
2018-Feb-06 20:29N 43°19' W 002°60'0 0.0
2018-Feb-06 19:59N 43°19' W 002°60'0 0.0
2018-Feb-06 19:29N 43°19' W 002°60'0 0.0
2018-Feb-06 18:56N 43°19' W 002°60'0 0.0
2018-Feb-06 18:29N 43°19' W 002°60'0 0.0
2018-Feb-06 17:56N 43°19' W 002°60'0 0.0
2018-Feb-06 17:29N 43°19' W 002°60'0 0.0
2018-Feb-06 16:59N 43°19' W 002°60'0 0.0
2018-Feb-06 16:29N 43°19' W 002°60'0 0.0
2018-Feb-06 15:56N 43°19' W 002°60'0 0.0
2018-Feb-06 15:29N 43°19' W 002°60'0 0.0
2018-Feb-06 14:56N 43°19' W 002°60'0 0.0
2018-Feb-06 14:29N 43°19' W 002°60'0 0.0
2018-Feb-06 13:59N 43°19' W 002°60'0 0.0
2018-Feb-06 13:29N 43°19' W 002°60'0 0.0
2018-Feb-06 12:59N 43°19' W 002°60'0 0.0
2018-Feb-06 12:30N 43°19' W 002°60'0 0.0
2018-Feb-06 12:00N 43°19' W 002°60'0 0.0
2018-Feb-06 11:30N 43°19' W 002°60'0 0.0
2018-Feb-06 11:00N 43°19' W 002°60'0 0.0
2018-Feb-06 10:30N 43°19' W 002°60'0 0.0
2018-Feb-06 09:59N 43°19' W 002°60'0 0.0
2018-Feb-06 09:30N 43°19' W 002°60'0 0.0
2018-Feb-06 09:00N 43°19' W 002°60'0 0.0
2018-Feb-06 08:30N 43°19' W 002°60'0 0.0
2018-Feb-06 08:00N 43°19' W 002°60'0 0.1
2018-Feb-06 07:30N 43°19' W 002°60'2 3.3
2018-Feb-06 07:00N 43°20' W 003°02'6 5.5
2018-Feb-06 06:00N 43°24' W 003°06'2 3.6
2018-Feb-06 05:30N 43°26' W 003°07'2 4.3
2018-Feb-06 05:00N 43°28' W 003°08'2 3.4
2018-Feb-06 04:30N 43°30' W 003°08'3 3.9
2018-Feb-06 03:52N 43°32' W 003°08'5 5.6
2018-Feb-06 03:00N 43°37' W 003°07'279 5.7
2018-Feb-04 01:58N 47°60' W 005°25'6 6.3
2018-Feb-04 00:58N 48°04' W 005°32'7 6.1
2018-Feb-03 23:53N 48°08' W 005°40'126 5.7
2018-Feb-03 01:44N 50°01' W 004°18'8 9.6
2018-Feb-03 00:53N 50°03' W 004°06'4 9.6
2018-Feb-03 00:30N 50°04' W 003°60'5 9.4
2018-Feb-02 23:57N 50°06' W 003°52'4 9.0
2018-Feb-02 23:30N 50°06' W 003°46'4 8.5
2018-Feb-02 23:00N 50°08' W 003°40'4 7.8
2018-Feb-02 22:31N 50°09' W 003°34'4 7.1
2018-Feb-02 22:00N 50°10' W 003°29'3 6.9
2018-Feb-02 21:30N 50°12' W 003°24'3 6.6
2018-Feb-02 21:00N 50°13' W 003°19'3 6.5
2018-Feb-02 20:31N 50°14' W 003°14'3 6.6
2018-Feb-02 20:00N 50°15' W 003°09'7 6.9
2018-Feb-02 19:00N 50°18' W 002°59'4 7.4
2018-Feb-02 18:30N 50°19' W 002°54'4 7.9
2018-Feb-02 18:00N 50°21' W 002°48'4 8.7
2018-Feb-02 17:30N 50°22' W 002°42'5 9.7
2018-Feb-02 17:00N 50°24' W 002°35'5110.9
2018-Feb-02 12:22N 50°29' W 001°16'29 5.5
2018-Feb-02 07:09N 50°31' W 000°31'1 7.2
2018-Feb-02 07:00N 50°31' W 000°29'4 7.9
2018-Feb-02 06:26N 50°31' W 000°22'4 8.6
2018-Feb-02 06:00N 50°31' W 000°16'5 9.1
2018-Feb-02 05:30N 50°31' W 000°09'5 9.3
2018-Feb-02 05:00N 50°32' W 000°02'5 9.5
2018-Feb-02 04:30N 50°33' E 000°05'5 9.6
2018-Feb-02 04:00N 50°35' E 000°13'33 8.1
2018-Feb-01 23:57N 50°50' E 000°59'10 7.3
2018-Feb-01 22:38N 50°56' E 001°11'5 8.4
2018-Feb-01 22:00N 50°59' E 001°17'510.6
2018-Feb-01 21:30N 51°03' E 001°23'2210.9
2018-Feb-01 19:30N 51°24' E 001°32'510.2
2018-Feb-01 19:00N 51°27' E 001°26'510.2
2018-Feb-01 18:30N 51°29' E 001°19'510.3
2018-Feb-01 18:00N 51°29' E 001°10'5 9.7
2018-Feb-01 17:30N 51°30' E 001°02'510.4
2018-Feb-01 17:00N 51°29' E 000°54'510.1
2018-Feb-01 16:30N 51°29' E 000°46'612.1
2018-Feb-01 16:00N 51°30' E 000°36'511.0
2018-Feb-01 15:30N 51°29' E 000°28'5 9.0
2018-Feb-01 15:00N 51°27' E 000°21'  

Dump ship's entire track history